Time;durP1;ratioP1;P1;durP2;ratioP2;P2;SDS_P1;SDS_P2;PMS_P1;PMS_P2;Temp;Humidity;BMP_temperature;BMP_pressure;BME280_temperature;BME280_humidity;BME280_pressure;Samples;Min_cycle;Max_cycle;Signal;HPM_P1;HPM_P2
2021/07/14 00:00:07;;;;;;;;;;;19.30;99.90;;;;;;6303615;28;20260;-68
2021/07/14 00:03:08;;;;;;;;;;;19.30;99.90;;;;;;6302846;28;19985;-68
2021/07/14 00:06:10;;;;;;;;;;;19.30;99.90;;;;;;6302264;28;19925;-68
2021/07/14 00:09:12;;;;;;;;;;;19.30;99.90;;;;;;6304069;28;20287;-69
2021/07/14 00:12:15;;;;;;;;;;;19.30;99.90;;;;;;6299858;28;20644;-68
2021/07/14 00:25:14;;;;;;;;;;;19.20;99.90;;;;;;6301913;28;19932;-68
2021/07/14 00:28:16;;;;;;;;;;;19.20;99.90;;;;;;6302122;28;20057;-68
2021/07/14 00:31:18;;;;;;;;;;;19.20;99.90;;;;;;6302860;28;19939;-68
2021/07/14 00:34:20;;;;;;;;;;;19.10;99.90;;;;;;6308274;28;20395;-68
2021/07/14 00:37:22;;;;;;;;;;;19.10;99.90;;;;;;6304917;28;19997;-68
2021/07/14 00:40:23;;;;;;;;;;;19.10;99.90;;;;;;6303112;28;20367;-68
2021/07/14 00:43:25;;;;;;;;;;;19.10;99.90;;;;;;6302348;28;19924;-68
2021/07/14 00:46:27;;;;;;;;;;;19.10;99.90;;;;;;6301954;28;20628;-68
2021/07/14 00:49:29;;;;;;;;;;;19.10;99.90;;;;;;6307868;28;20383;-68
2021/07/14 00:52:31;;;;;;;;;;;19.10;99.90;;;;;;6303781;28;19924;-69
2021/07/14 00:55:33;;;;;;;;;;;19.10;99.90;;;;;;6302735;28;19924;-67
2021/07/14 00:58:35;;;;;;;;;;;19.10;99.90;;;;;;6298721;28;19929;-68
2021/07/14 01:01:36;;;;;;;;;;;19.10;99.90;;;;;;6298293;28;19939;-68
2021/07/14 01:04:40;;;;;;;;;;;19.10;99.90;;;;;;6308187;28;20383;-68
2021/07/14 01:07:46;;;;;;;;;;;19.10;99.90;;;;;;6299307;28;19933;-68
2021/07/14 01:10:50;;;;;;;;;;;19.10;99.90;;;;;;6299752;28;20368;-68
2021/07/14 01:14:00;;;;;;;;;;;19.10;99.90;;;;;;6307173;28;19955;-68
2021/07/14 01:17:03;;;;;;;;;;;19.10;99.90;;;;;;6301891;28;20448;-68
2021/07/14 01:20:25;;;;;;;;;;;19.10;99.90;;;;;;6305783;28;19924;-68
2021/07/14 01:23:45;;;;;;;;;;;19.10;99.90;;;;;;6284694;28;19925;-68
2021/07/14 01:27:01;;;;;;;;;;;19.10;99.90;;;;;;6300867;28;19936;-68
2021/07/14 01:30:06;;;;;;;;;;;19.10;99.90;;;;;;6305231;28;20000;-68
2021/07/14 01:33:09;;;;;;;;;;;19.10;99.90;;;;;;6296637;28;19925;-68
2021/07/14 01:36:14;;;;;;;;;;;19.10;99.90;;;;;;6300652;28;20450;-68
2021/07/14 01:39:16;;;;;;;;;;;19.10;99.90;;;;;;6305840;28;19932;-68
2021/07/14 01:42:21;;;;;;;;;;;19.10;99.90;;;;;;6297647;28;20303;-68
2021/07/14 01:45:30;;;;;;;;;;;19.10;99.90;;;;;;6311816;28;19962;-68
2021/07/14 01:48:33;;;;;;;;;;;19.10;99.90;;;;;;6305546;28;19931;-68
2021/07/14 01:51:36;;;;;;;;;;;19.10;99.90;;;;;;6303274;28;22114;-68
2021/07/14 01:54:39;;;;;;;;;;;19.10;99.90;;;;;;6299226;28;20341;-68
2021/07/14 01:57:41;;;;;;;;;;;19.10;99.90;;;;;;6303745;28;20001;-68
2021/07/14 02:00:44;;;;;;;;;;;19.10;99.90;;;;;;6312657;28;19950;-68
2021/07/14 02:07:14;;;;;;;;;;;19.10;99.90;;;;;;6299777;28;19932;-68
2021/07/14 02:10:15;;;;;;;;;;;19.10;99.90;;;;;;6308879;28;19935;-67
2021/07/14 02:13:18;;;;;;;;;;;19.10;99.90;;;;;;6307493;28;20352;-68
2021/07/14 02:16:20;;;;;;;;;;;19.10;99.90;;;;;;6300894;28;19930;-68
2021/07/14 02:19:23;;;;;;;;;;;19.10;99.90;;;;;;6296728;28;19952;-68
2021/07/14 02:22:26;;;;;;;;;;;19.00;99.90;;;;;;6296237;28;19924;-68
2021/07/14 02:25:27;;;;;;;;;;;19.00;99.90;;;;;;6301133;28;19953;-68
2021/07/14 02:28:29;;;;;;;;;;;19.00;99.90;;;;;;6297202;28;19947;-67
2021/07/14 02:31:31;;;;;;;;;;;19.00;99.90;;;;;;6298115;28;19924;-68
2021/07/14 02:34:33;;;;;;;;;;;19.00;99.90;;;;;;6309790;28;20001;-68
2021/07/14 02:38:01;;;;;;;;;;;19.00;99.90;;;;;;6294122;28;19931;-68
2021/07/14 02:41:16;;;;;;;;;;;19.00;99.90;;;;;;6286734;28;19924;-68
2021/07/14 02:44:20;;;;;;;;;;;19.00;99.90;;;;;;6300717;28;20472;-68
2021/07/14 02:47:21;;;;;;;;;;;19.00;99.90;;;;;;6299948;28;20354;-68
2021/07/14 02:50:25;;;;;;;;;;;19.00;99.90;;;;;;6292804;28;19925;-68
2021/07/14 02:53:29;;;;;;;;;;;19.00;99.90;;;;;;6296065;28;19924;-68
2021/07/14 02:56:31;;;;;;;;;;;19.00;99.90;;;;;;6304911;28;20391;-68
2021/07/14 02:59:35;;;;;;;;;;;19.00;99.90;;;;;;6297767;28;19970;-68
2021/07/14 03:02:39;;;;;;;;;;;19.00;99.90;;;;;;6300702;28;19925;-68
2021/07/14 03:05:41;;;;;;;;;;;19.10;99.90;;;;;;6295417;28;19928;-68
2021/07/14 03:08:45;;;;;;;;;;;19.10;99.90;;;;;;6304609;28;19924;-68
2021/07/14 03:11:47;;;;;;;;;;;19.10;99.90;;;;;;6297763;28;20029;-68
2021/07/14 03:14:58;;;;;;;;;;;19.10;99.90;;;;;;6306222;28;19936;-68
2021/07/14 03:18:00;;;;;;;;;;;19.10;99.90;;;;;;6295236;28;20359;-68
2021/07/14 03:21:03;;;;;;;;;;;19.10;99.90;;;;;;6296741;28;20015;-68
2021/07/14 03:24:06;;;;;;;;;;;19.10;99.90;;;;;;6301433;28;20027;-68
2021/07/14 03:27:08;;;;;;;;;;;19.10;99.90;;;;;;6302378;28;19924;-69
2021/07/14 03:30:10;;;;;;;;;;;19.10;99.90;;;;;;6309389;28;20329;-68
2021/07/14 03:33:13;;;;;;;;;;;19.10;99.90;;;;;;6305815;28;19969;-68
2021/07/14 03:36:15;;;;;;;;;;;19.10;99.90;;;;;;6307839;28;19928;-68
2021/07/14 03:39:17;;;;;;;;;;;19.10;99.90;;;;;;6306640;28;19985;-68
2021/07/14 03:42:21;;;;;;;;;;;19.10;99.90;;;;;;6304231;28;19989;-68
2021/07/14 03:45:24;;;;;;;;;;;19.10;99.90;;;;;;6300526;28;19928;-68
2021/07/14 03:48:28;;;;;;;;;;;19.10;99.90;;;;;;6301242;28;19990;-68
2021/07/14 03:51:30;;;;;;;;;;;19.10;99.90;;;;;;6310913;28;19944;-68
2021/07/14 03:54:32;;;;;;;;;;;19.10;99.90;;;;;;6306756;28;20032;-68
2021/07/14 03:57:33;;;;;;;;;;;19.10;99.90;;;;;;6314638;28;19924;-68
2021/07/14 04:00:35;;;;;;;;;;;19.10;99.90;;;;;;6312123;28;20181;-68
2021/07/14 04:03:38;;;;;;;;;;;19.10;99.90;;;;;;6300731;28;19982;-68
2021/07/14 04:06:41;;;;;;;;;;;19.10;99.90;;;;;;6305864;28;19948;-68
2021/07/14 04:09:44;;;;;;;;;;;19.10;99.90;;;;;;6304468;28;19977;-68
2021/07/14 04:12:47;;;;;;;;;;;19.10;99.90;;;;;;6306084;28;20038;-68
2021/07/14 04:15:48;;;;;;;;;;;19.20;99.90;;;;;;6307226;28;19931;-68
2021/07/14 04:18:50;;;;;;;;;;;19.20;99.90;;;;;;6309632;28;19924;-68
2021/07/14 04:21:55;;;;;;;;;;;19.20;99.90;;;;;;6301117;28;20356;-68
2021/07/14 04:24:59;;;;;;;;;;;19.20;99.90;;;;;;6308030;28;19999;-68
2021/07/14 04:28:01;;;;;;;;;;;19.20;99.90;;;;;;6301126;28;19928;-68
2021/07/14 04:31:03;;;;;;;;;;;19.20;99.90;;;;;;6311661;28;19986;-68
2021/07/14 04:34:04;;;;;;;;;;;19.20;99.90;;;;;;6301452;28;19947;-68
2021/07/14 04:37:06;;;;;;;;;;;19.20;99.90;;;;;;6310584;28;19932;-68
2021/07/14 04:40:08;;;;;;;;;;;19.10;99.90;;;;;;6301051;28;19993;-68
2021/07/14 04:43:10;;;;;;;;;;;19.10;99.90;;;;;;6305302;28;20442;-68
2021/07/14 04:46:12;;;;;;;;;;;19.10;99.90;;;;;;6312508;28;19928;-68
2021/07/14 04:49:14;;;;;;;;;;;19.20;99.90;;;;;;6305360;28;19971;-68
2021/07/14 04:52:16;;;;;;;;;;;19.20;99.90;;;;;;6303410;28;19986;-68
2021/07/14 04:55:17;;;;;;;;;;;19.20;99.90;;;;;;6301711;28;19939;-68
2021/07/14 04:58:19;;;;;;;;;;;19.20;99.90;;;;;;6299759;28;20435;-68
2021/07/14 05:01:21;;;;;;;;;;;19.20;99.90;;;;;;6306695;28;20535;-68
2021/07/14 05:04:23;;;;;;;;;;;19.20;99.90;;;;;;6306128;28;19997;-68
2021/07/14 05:07:24;;;;;;;;;;;19.20;99.90;;;;;;6304542;28;19924;-68
2021/07/14 05:10:30;;;;;;;;;;;19.20;99.90;;;;;;6310382;28;19924;-68
2021/07/14 05:13:32;;;;;;;;;;;19.20;99.90;;;;;;6307327;28;19924;-68
2021/07/14 05:16:36;;;;;;;;;;;19.10;99.90;;;;;;6296873;28;20409;-68
2021/07/14 05:19:38;;;;;;;;;;;19.10;99.90;;;;;;6311372;28;19978;-68
2021/07/14 05:22:40;;;;;;;;;;;19.20;99.90;;;;;;6315399;28;19943;-68
2021/07/14 05:25:42;;;;;;;;;;;19.20;99.90;;;;;;6305462;28;19932;-68
2021/07/14 05:28:44;;;;;;;;;;;19.10;99.90;;;;;;6302390;28;19939;-68
2021/07/14 05:31:46;;;;;;;;;;;19.20;99.90;;;;;;6305434;28;20630;-68
2021/07/14 05:34:48;;;;;;;;;;;19.20;99.90;;;;;;6312314;28;20351;-68
2021/07/14 05:37:50;;;;;;;;;;;19.20;99.90;;;;;;6307422;28;20058;-68
2021/07/14 05:40:51;;;;;;;;;;;19.20;99.90;;;;;;6302865;28;19924;-68
2021/07/14 05:43:54;;;;;;;;;;;19.20;99.90;;;;;;6299410;28;19939;-68
2021/07/14 05:46:56;;;;;;;;;;;19.20;99.90;;;;;;6307999;28;19932;-68
2021/07/14 05:49:58;;;;;;;;;;;19.20;99.90;;;;;;6300879;28;20264;-68
2021/07/14 05:53:00;;;;;;;;;;;19.20;99.90;;;;;;6300614;28;19935;-68
2021/07/14 05:56:02;;;;;;;;;;;19.20;99.90;;;;;;6308803;28;19924;-68
2021/07/14 05:59:03;;;;;;;;;;;19.20;99.90;;;;;;6308952;28;19924;-68
2021/07/14 06:02:05;;;;;;;;;;;19.20;99.90;;;;;;6301234;28;20371;-68
2021/07/14 06:05:08;;;;;;;;;;;19.20;99.90;;;;;;6293814;28;20011;-68
2021/07/14 06:08:10;;;;;;;;;;;19.20;99.90;;;;;;6305267;28;20327;-68
2021/07/14 06:11:12;;;;;;;;;;;19.20;99.90;;;;;;6307938;28;20024;-68
2021/07/14 06:14:13;;;;;;;;;;;19.20;99.90;;;;;;6301336;28;19943;-68
2021/07/14 06:17:15;;;;;;;;;;;19.20;99.90;;;;;;6303683;28;19932;-68
2021/07/14 06:20:17;;;;;;;;;;;19.20;99.90;;;;;;6299688;28;19924;-68
2021/07/14 06:23:19;;;;;;;;;;;19.20;99.90;;;;;;6302296;28;19925;-68
2021/07/14 06:26:21;;;;;;;;;;;19.20;99.90;;;;;;6302795;28;19952;-68
2021/07/14 06:29:23;;;;;;;;;;;19.20;99.90;;;;;;6301815;28;19991;-68
2021/07/14 06:32:25;;;;;;;;;;;19.20;99.90;;;;;;6299044;28;19925;-68
2021/07/14 06:35:27;;;;;;;;;;;19.20;99.90;;;;;;6300609;28;19925;-68
2021/07/14 06:38:29;;;;;;;;;;;19.20;99.90;;;;;;6298416;28;19940;-68
2021/07/14 06:41:31;;;;;;;;;;;19.20;99.90;;;;;;6301923;28;19993;-68
2021/07/14 06:44:36;;;;;;;;;;;19.20;99.90;;;;;;6307917;28;19947;-68
2021/07/14 06:47:38;;;;;;;;;;;19.20;99.90;;;;;;6298941;28;19946;-68
2021/07/14 06:50:40;;;;;;;;;;;19.20;99.90;;;;;;6298530;28;19928;-68
2021/07/14 06:53:42;;;;;;;;;;;19.20;99.90;;;;;;6298026;28;19935;-68
2021/07/14 06:56:43;;;;;;;;;;;19.20;99.90;;;;;;6301650;28;19940;-69
2021/07/14 06:59:45;;;;;;;;;;;19.10;99.90;;;;;;6302810;28;19943;-68
2021/07/14 07:02:47;;;;;;;;;;;19.20;99.90;;;;;;6302031;28;19970;-69
2021/07/14 07:05:49;;;;;;;;;;;19.20;99.90;;;;;;6304397;28;20368;-68
2021/07/14 07:08:50;;;;;;;;;;;19.10;99.90;;;;;;6297963;28;20322;-68
2021/07/14 07:11:52;;;;;;;;;;;19.10;99.90;;;;;;6300814;28;19924;-68
2021/07/14 07:14:55;;;;;;;;;;;19.00;99.90;;;;;;6304752;28;21218;-68
2021/07/14 07:17:57;;;;;;;;;;;19.00;99.90;;;;;;6297629;28;19951;-68
2021/07/14 07:20:59;;;;;;;;;;;18.90;99.90;;;;;;6303671;28;20363;-68
2021/07/14 07:24:01;;;;;;;;;;;18.90;99.90;;;;;;6309585;28;19968;-68
2021/07/14 07:27:04;;;;;;;;;;;18.90;99.90;;;;;;6290690;28;20371;-68
2021/07/14 07:30:07;;;;;;;;;;;18.90;99.90;;;;;;6288623;28;19950;-68
2021/07/14 07:33:09;;;;;;;;;;;18.90;99.90;;;;;;6286333;28;19924;-68
2021/07/14 07:36:10;;;;;;;;;;;18.80;99.90;;;;;;6303682;28;19966;-68
2021/07/14 07:39:14;;;;;;;;;;;18.90;99.90;;;;;;6286912;28;20356;-68
2021/07/14 07:42:15;;;;;;;;;;;18.90;99.90;;;;;;6285554;28;19932;-68
2021/07/14 07:45:17;;;;;;;;;;;18.90;99.90;;;;;;6288225;28;19925;-69
2021/07/14 07:48:19;;;;;;;;;;;18.90;99.90;;;;;;6290825;28;19939;-68
2021/07/14 07:51:21;;;;;;;;;;;18.90;99.90;;;;;;6288869;28;20451;-68
2021/07/14 07:54:22;;;;;;;;;;;19.00;99.90;;;;;;6286378;28;19998;-68
2021/07/14 07:57:24;;;;;;;;;;;19.00;99.90;;;;;;6288877;28;19932;-68
2021/07/14 08:00:26;;;;;;;;;;;19.00;99.90;;;;;;6286800;28;20330;-68
2021/07/14 08:03:27;;;;;;;;;;;19.10;99.90;;;;;;6286845;28;19939;-69
2021/07/14 08:06:29;;;;;;;;;;;19.00;99.90;;;;;;6300869;28;20334;-68
2021/07/14 08:09:31;;;;;;;;;;;19.00;99.90;;;;;;6286672;28;19928;-68
2021/07/14 08:12:33;;;;;;;;;;;19.00;99.90;;;;;;6288257;28;19932;-68
2021/07/14 08:15:35;;;;;;;;;;;19.00;99.90;;;;;;6308354;28;19925;-68
2021/07/14 08:18:36;;;;;;;;;;;19.00;99.90;;;;;;6296234;28;19924;-68
2021/07/14 08:21:39;;;;;;;;;;;19.00;99.90;;;;;;6293879;28;20341;-68
2021/07/14 08:24:40;;;;;;;;;;;19.00;99.90;;;;;;6295440;28;19969;-68
2021/07/14 08:27:42;;;;;;;;;;;19.10;99.90;;;;;;6302402;28;19929;-68
2021/07/14 08:30:44;;;;;;;;;;;19.00;99.90;;;;;;6292368;28;20017;-68
2021/07/14 08:33:46;;;;;;;;;;;19.10;99.90;;;;;;6293698;28;20015;-68
2021/07/14 08:36:47;;;;;;;;;;;19.10;99.90;;;;;;6304973;28;20449;-68
2021/07/14 08:39:51;;;;;;;;;;;19.10;99.90;;;;;;6288976;28;20381;-68
2021/07/14 08:42:56;;;;;;;;;;;19.10;99.90;;;;;;6291691;28;20333;-68
2021/07/14 08:46:01;;;;;;;;;;;19.10;99.90;;;;;;6292021;28;19924;-68
2021/07/14 08:49:05;;;;;;;;;;;19.10;99.90;;;;;;6290765;28;19936;-68
2021/07/14 08:52:07;;;;;;;;;;;19.10;99.90;;;;;;6291975;28;19928;-68
2021/07/14 08:55:10;;;;;;;;;;;19.20;99.90;;;;;;6291880;28;20391;-68
2021/07/14 08:58:16;;;;;;;;;;;19.10;99.90;;;;;;6289930;28;19978;-68
2021/07/14 09:01:18;;;;;;;;;;;19.20;99.90;;;;;;6291621;28;19928;-68
2021/07/14 09:04:20;;;;;;;;;;;19.20;99.90;;;;;;6289695;28;19932;-68
2021/07/14 09:07:22;;;;;;;;;;;19.30;99.90;;;;;;6291910;28;20383;-68
2021/07/14 09:10:24;;;;;;;;;;;19.20;99.90;;;;;;6289348;28;19924;-68
2021/07/14 09:13:36;;;;;;;;;;;19.20;99.90;;;;;;6292048;28;19932;-68
2021/07/14 09:16:38;;;;;;;;;;;19.20;99.90;;;;;;6288245;28;20317;-68
2021/07/14 09:19:40;;;;;;;;;;;19.20;99.90;;;;;;6286408;28;19924;-68
2021/07/14 09:22:42;;;;;;;;;;;19.20;99.90;;;;;;6290544;28;19957;-68
2021/07/14 09:25:48;;;;;;;;;;;19.20;99.90;;;;;;6294578;28;19928;-68
2021/07/14 09:29:02;;;;;;;;;;;19.30;99.90;;;;;;6289412;28;19924;-68
2021/07/14 09:32:07;;;;;;;;;;;19.30;99.90;;;;;;6291008;28;20379;-68
2021/07/14 09:35:09;;;;;;;;;;;19.30;99.90;;;;;;6292688;28;19934;-68
2021/07/14 09:38:19;;;;;;;;;;;19.30;99.90;;;;;;6292729;28;19936;-68
2021/07/14 09:41:21;;;;;;;;;;;19.20;99.90;;;;;;6292570;28;20391;-68
2021/07/14 09:44:23;;;;;;;;;;;19.20;99.90;;;;;;6290144;28;19928;-68
2021/07/14 09:47:25;;;;;;;;;;;19.20;99.90;;;;;;6307514;28;19924;-68
2021/07/14 09:50:34;;;;;;;;;;;19.20;99.90;;;;;;6292797;28;19924;-68
2021/07/14 09:53:37;;;;;;;;;;;19.20;99.90;;;;;;6292298;28;19934;-68
2021/07/14 09:56:40;;;;;;;;;;;19.20;99.90;;;;;;6288323;28;19929;-68
2021/07/14 09:59:42;;;;;;;;;;;19.30;99.90;;;;;;6286152;28;19932;-68
2021/07/14 10:02:54;;;;;;;;;;;19.30;99.90;;;;;;6289673;28;20367;-68
2021/07/14 10:06:05;;;;;;;;;;;19.20;99.90;;;;;;6293509;28;19943;-68
2021/07/14 10:09:07;;;;;;;;;;;19.20;99.90;;;;;;6290589;28;19925;-68
2021/07/14 10:12:27;;;;;;;;;;;19.30;99.90;;;;;;6288150;28;20342;-68
2021/07/14 10:15:30;;;;;;;;;;;19.30;99.90;;;;;;6291293;28;20015;-68
2021/07/14 10:18:32;;;;;;;;;;;19.30;99.90;;;;;;6286611;28;19928;-68
2021/07/14 10:21:39;;;;;;;;;;;19.30;99.90;;;;;;6289632;28;20314;-68
2021/07/14 10:24:40;;;;;;;;;;;19.30;99.90;;;;;;6289861;28;20292;-68
2021/07/14 10:27:42;;;;;;;;;;;19.30;99.90;;;;;;6287988;28;19943;-68
2021/07/14 10:30:46;;;;;;;;;;;19.20;99.90;;;;;;6287444;28;19936;-68
2021/07/14 10:33:49;;;;;;;;;;;19.30;99.90;;;;;;6290635;28;19924;-68
2021/07/14 10:36:51;;;;;;;;;;;19.30;99.90;;;;;;6293245;28;19936;-68
2021/07/14 10:39:54;;;;;;;;;;;19.30;99.90;;;;;;6304759;28;20316;-68
2021/07/14 10:42:56;;;;;;;;;;;19.20;99.90;;;;;;6288145;28;20338;-68
2021/07/14 10:45:59;;;;;;;;;;;19.30;99.90;;;;;;6288862;28;20042;-68
2021/07/14 10:49:03;;;;;;;;;;;19.20;99.90;;;;;;6258179;28;20401;-68
2021/07/14 10:52:05;;;;;;;;;;;19.20;99.90;;;;;;6298525;28;19929;-68
2021/07/14 10:55:11;;;;;;;;;;;19.20;99.90;;;;;;6287622;28;19951;-68
2021/07/14 10:58:15;;;;;;;;;;;19.30;99.90;;;;;;6286220;28;20287;-68
2021/07/14 11:01:35;;;;;;;;;;;19.30;99.90;;;;;;6285273;28;19924;-68
2021/07/14 11:04:42;;;;;;;;;;;19.40;99.90;;;;;;6286995;28;19924;-68
2021/07/14 11:07:45;;;;;;;;;;;19.50;99.90;;;;;;6288164;28;19932;-68
2021/07/14 11:10:57;;;;;;;;;;;19.50;99.90;;;;;;6288958;28;20004;-68
2021/07/14 11:14:02;;;;;;;;;;;19.50;99.90;;;;;;6288291;28;19928;-68
2021/07/14 11:17:04;;;;;;;;;;;19.50;99.90;;;;;;6287583;28;20163;-68
2021/07/14 11:20:08;;;;;;;;;;;19.50;99.90;;;;;;6289035;28;19960;-68
2021/07/14 11:23:18;;;;;;;;;;;19.50;99.90;;;;;;6287982;28;19936;-68
2021/07/14 11:26:24;;;;;;;;;;;19.50;99.90;;;;;;6305910;28;19963;-68
2021/07/14 11:29:37;;;;;;;;;;;19.50;99.90;;;;;;6289730;28;19935;-68
2021/07/14 11:32:52;;;;;;;;;;;19.50;99.90;;;;;;6287721;28;20411;-68
2021/07/14 11:35:54;;;;;;;;;;;19.50;99.90;;;;;;6289305;28;19981;-68
2021/07/14 11:38:56;;;;;;;;;;;19.50;99.90;;;;;;6285844;28;19924;-68
2021/07/14 11:42:16;;;;;;;;;;;19.60;99.90;;;;;;6292668;28;19928;-68
2021/07/14 11:45:38;;;;;;;;;;;19.50;99.90;;;;;;6288905;28;20288;-68
2021/07/14 11:48:41;;;;;;;;;;;19.60;99.90;;;;;;6288008;28;19932;-68
2021/07/14 11:51:43;;;;;;;;;;;19.60;99.90;;;;;;6293821;28;19935;-68
2021/07/14 11:54:44;;;;;;;;;;;19.70;99.90;;;;;;6292833;28;20406;-68
2021/07/14 11:57:46;;;;;;;;;;;19.70;99.90;;;;;;6296530;28;19929;-68
2021/07/14 12:00:48;;;;;;;;;;;19.70;99.90;;;;;;6295792;28;19973;-68
2021/07/14 12:04:02;;;;;;;;;;;19.80;99.90;;;;;;6292337;28;20306;-68
2021/07/14 12:07:04;;;;;;;;;;;19.80;99.90;;;;;;6292516;28;20106;-68
2021/07/14 12:10:14;;;;;;;;;;;19.80;99.90;;;;;;6289556;28;20260;-68
2021/07/14 12:13:21;;;;;;;;;;;19.90;99.90;;;;;;6294298;28;19928;-68
2021/07/14 12:16:27;;;;;;;;;;;19.90;99.90;;;;;;6293131;28;20363;-68
2021/07/14 12:19:30;;;;;;;;;;;19.90;99.90;;;;;;6289691;28;19932;-68
2021/07/14 12:22:32;;;;;;;;;;;19.90;99.90;;;;;;6291502;28;20572;-68
2021/07/14 12:25:34;;;;;;;;;;;20.00;99.90;;;;;;6301041;28;19924;-68
2021/07/14 12:28:36;;;;;;;;;;;20.00;99.90;;;;;;6288971;28;19972;-69
2021/07/14 12:31:38;;;;;;;;;;;20.00;99.90;;;;;;6282287;28;20297;-68
2021/07/14 12:34:39;;;;;;;;;;;20.00;99.90;;;;;;6288269;28;20346;-68
2021/07/14 12:38:04;;;;;;;;;;;20.10;99.90;;;;;;6287320;28;19954;-68
2021/07/14 12:41:09;;;;;;;;;;;20.10;99.90;;;;;;6288777;28;19935;-68
2021/07/14 12:44:15;;;;;;;;;;;20.10;99.90;;;;;;6289112;28;19932;-68
2021/07/14 12:47:20;;;;;;;;;;;20.10;99.90;;;;;;6288822;28;19928;-68
2021/07/14 12:50:26;;;;;;;;;;;20.10;99.90;;;;;;6290624;28;19924;-68
2021/07/14 12:53:27;;;;;;;;;;;20.10;99.90;;;;;;6291581;28;19997;-68
2021/07/14 12:56:29;;;;;;;;;;;20.10;99.90;;;;;;6295719;28;19932;-68
2021/07/14 12:59:31;;;;;;;;;;;20.20;99.90;;;;;;6289479;28;19925;-68
2021/07/14 13:02:37;;;;;;;;;;;20.20;99.90;;;;;;6289471;28;19932;-68
2021/07/14 13:05:40;;;;;;;;;;;20.20;99.90;;;;;;6289187;28;19924;-68
2021/07/14 13:08:44;;;;;;;;;;;20.30;99.90;;;;;;6289035;28;19928;-68
2021/07/14 13:11:47;;;;;;;;;;;20.30;99.90;;;;;;6291275;28;19951;-68
2021/07/14 13:14:50;;;;;;;;;;;20.30;99.90;;;;;;6290924;28;20330;-68
2021/07/14 13:18:03;;;;;;;;;;;20.40;99.90;;;;;;6289600;28;19928;-68
2021/07/14 13:21:06;;;;;;;;;;;20.40;99.90;;;;;;6290229;28;20311;-68
2021/07/14 13:24:07;;;;;;;;;;;20.40;99.90;;;;;;6292306;28;20497;-68
2021/07/14 13:27:09;;;;;;;;;;;20.40;99.90;;;;;;6288607;28;20049;-68
2021/07/14 13:30:28;;;;;;;;;;;20.50;99.90;;;;;;6301734;28;20349;-68
2021/07/14 13:33:36;;;;;;;;;;;20.60;99.90;;;;;;6292543;28;19939;-68
2021/07/14 13:36:38;;;;;;;;;;;20.60;99.90;;;;;;6292591;28;19935;-68
2021/07/14 13:39:41;;;;;;;;;;;20.60;99.90;;;;;;6292673;28;20318;-68
2021/07/14 13:42:43;;;;;;;;;;;20.70;99.90;;;;;;6289893;28;19932;-68
2021/07/14 13:45:44;;;;;;;;;;;20.70;99.90;;;;;;6291815;28;19972;-68
2021/07/14 13:48:52;;;;;;;;;;;20.80;99.90;;;;;;6291503;28;19944;-68
2021/07/14 13:51:55;;;;;;;;;;;20.80;99.90;;;;;;6287585;28;19943;-68
2021/07/14 13:55:08;;;;;;;;;;;20.80;99.90;;;;;;6288852;28;19924;-68
2021/07/14 13:58:10;;;;;;;;;;;20.90;99.90;;;;;;6281862;28;20334;-68
2021/07/14 14:01:12;;;;;;;;;;;20.90;99.90;;;;;;6288094;28;19955;-69
2021/07/14 14:04:13;;;;;;;;;;;20.90;99.90;;;;;;6287830;28;19938;-69
2021/07/14 14:07:15;;;;;;;;;;;20.90;99.90;;;;;;6289058;28;20436;-68
2021/07/14 14:10:21;;;;;;;;;;;20.90;99.90;;;;;;6289585;28;19924;-70
2021/07/14 14:13:28;;;;;;;;;;;20.90;99.90;;;;;;6291225;28;20347;-71
2021/07/14 14:16:29;;;;;;;;;;;20.90;99.90;;;;;;6301503;28;19928;-72
2021/07/14 14:19:31;;;;;;;;;;;20.90;99.90;;;;;;6294689;28;20329;-68
2021/07/14 14:22:33;;;;;;;;;;;20.90;99.90;;;;;;6291192;28;19935;-71
2021/07/14 14:25:41;;;;;;;;;;;20.90;99.90;;;;;;6293768;28;19924;-68
2021/07/14 14:28:44;;;;;;;;;;;20.90;99.90;;;;;;6290293;28;19932;-69
2021/07/14 14:31:47;;;;;;;;;;;20.90;99.90;;;;;;6292094;28;19932;-68
2021/07/14 14:34:48;;;;;;;;;;;20.90;99.90;;;;;;6292213;28;19932;-68
2021/07/14 14:37:50;;;;;;;;;;;20.90;99.90;;;;;;6289878;28;19928;-68
2021/07/14 14:40:52;;;;;;;;;;;20.90;99.90;;;;;;6280155;28;19936;-68
2021/07/14 14:43:54;;;;;;;;;;;20.90;99.90;;;;;;6283710;28;20547;-69
2021/07/14 14:46:55;;;;;;;;;;;20.90;99.90;;;;;;6286313;28;19989;-68
2021/07/14 14:49:57;;;;;;;;;;;20.90;99.90;;;;;;6297112;28;19978;-68
2021/07/14 14:52:59;;;;;;;;;;;20.90;99.90;;;;;;6292701;28;19925;-68
2021/07/14 14:56:01;;;;;;;;;;;20.90;99.90;;;;;;6291182;28;20229;-68
2021/07/14 14:59:03;;;;;;;;;;;20.90;99.90;;;;;;6289219;28;19965;-69
2021/07/14 15:02:04;;;;;;;;;;;21.00;99.90;;;;;;6284156;28;19943;-68
2021/07/14 15:05:07;;;;;;;;;;;21.00;99.90;;;;;;6289696;28;19932;-68
2021/07/14 15:08:09;;;;;;;;;;;21.10;99.90;;;;;;6284748;28;19936;-68
2021/07/14 15:11:11;;;;;;;;;;;21.10;99.90;;;;;;6289068;28;19928;-68
2021/07/14 15:14:13;;;;;;;;;;;21.10;99.90;;;;;;6291733;28;19996;-68
2021/07/14 15:17:14;;;;;;;;;;;21.00;99.90;;;;;;6306841;28;19928;-68
2021/07/14 15:20:18;;;;;;;;;;;21.00;99.90;;;;;;6288450;28;19924;-68
2021/07/14 15:23:19;;;;;;;;;;;21.00;99.90;;;;;;6288943;28;20096;-68
2021/07/14 15:29:42;;;;;;;;;;;20.90;99.90;;;;;;6286703;28;19931;-68
2021/07/14 15:32:43;;;;;;;;;;;20.90;99.90;;;;;;6289346;28;19928;-68
2021/07/14 15:35:45;;;;;;;;;;;20.90;99.90;;;;;;6290785;28;19935;-68
2021/07/14 15:38:47;;;;;;;;;;;21.00;99.90;;;;;;6302144;28;20113;-68
2021/07/14 15:41:49;;;;;;;;;;;21.00;99.90;;;;;;6288139;28;19939;-69
2021/07/14 15:45:08;;;;;;;;;;;21.20;99.90;;;;;;6287561;28;19940;-68
2021/07/14 15:48:09;;;;;;;;;;;21.40;99.90;;;;;;6286070;28;20268;-68
2021/07/14 15:51:11;;;;;;;;;;;21.60;99.90;;;;;;6286222;28;19985;-68
2021/07/14 15:54:13;;;;;;;;;;;21.50;99.90;;;;;;6286398;28;19965;-69
2021/07/14 15:57:14;;;;;;;;;;;21.60;99.90;;;;;;6287031;28;19929;-68
2021/07/14 16:00:16;;;;;;;;;;;21.60;99.90;;;;;;6286185;28;19928;-69
2021/07/14 16:03:18;;;;;;;;;;;21.60;99.90;;;;;;6286899;28;19932;-68
2021/07/14 16:06:20;;;;;;;;;;;21.70;99.90;;;;;;6286039;28;19924;-68
2021/07/14 16:09:22;;;;;;;;;;;21.60;99.90;;;;;;6286095;28;20351;-68
2021/07/14 16:12:23;;;;;;;;;;;21.60;99.90;;;;;;6285198;28;20026;-68
2021/07/14 16:15:25;;;;;;;;;;;21.60;99.90;;;;;;6288249;28;20373;-68
2021/07/14 16:18:27;;;;;;;;;;;21.60;99.90;;;;;;6303285;28;20348;-68
2021/07/14 16:21:30;;;;;;;;;;;21.60;99.90;;;;;;6287316;28;19932;-68
2021/07/14 16:24:32;;;;;;;;;;;21.60;99.90;;;;;;6288547;28;19932;-68
2021/07/14 16:27:34;;;;;;;;;;;21.60;99.90;;;;;;6286972;28;20284;-68
2021/07/14 16:30:35;;;;;;;;;;;21.60;99.90;;;;;;6288490;28;20712;-68
2021/07/14 16:33:37;;;;;;;;;;;21.50;99.90;;;;;;6288046;28;19979;-68
2021/07/14 16:36:39;;;;;;;;;;;21.50;99.90;;;;;;6291499;28;19932;-68
2021/07/14 16:39:40;;;;;;;;;;;21.40;99.90;;;;;;6289176;28;19925;-69
2021/07/14 16:42:44;;;;;;;;;;;21.30;99.90;;;;;;6293098;28;19967;-68
2021/07/14 16:45:48;;;;;;;;;;;21.20;99.90;;;;;;6295313;28;19939;-69
2021/07/14 16:48:50;;;;;;;;;;;21.10;99.90;;;;;;6292155;28;20042;-69
2021/07/14 16:51:51;;;;;;;;;;;21.10;99.90;;;;;;6293031;28;20183;-69
2021/07/14 16:54:55;;;;;;;;;;;21.10;99.90;;;;;;6296325;28;19928;-68
2021/07/14 16:57:56;;;;;;;;;;;21.00;99.90;;;;;;6290515;28;20379;-68
2021/07/14 17:00:58;;;;;;;;;;;21.00;99.90;;;;;;6290971;28;19925;-69
2021/07/14 17:04:00;;;;;;;;;;;21.00;99.90;;;;;;6292145;28;19976;-68
2021/07/14 17:07:02;;;;;;;;;;;21.00;99.90;;;;;;6293251;28;19925;-68
2021/07/14 17:10:05;;;;;;;;;;;21.00;99.90;;;;;;6304898;28;19931;-69
2021/07/14 17:13:06;;;;;;;;;;;21.00;99.90;;;;;;6292163;28;19931;-68
2021/07/14 17:16:08;;;;;;;;;;;21.10;99.90;;;;;;6291674;28;19931;-68
2021/07/14 17:19:11;;;;;;;;;;;21.10;99.90;;;;;;6292229;28;20023;-69
2021/07/14 17:22:12;;;;;;;;;;;21.20;99.90;;;;;;6293673;28;20288;-68
2021/07/14 17:25:14;;;;;;;;;;;21.20;99.90;;;;;;6306676;28;19939;-68
2021/07/14 17:28:16;;;;;;;;;;;21.20;99.90;;;;;;6290979;28;20287;-68
2021/07/14 17:31:18;;;;;;;;;;;21.30;99.90;;;;;;6307520;28;19982;-69
2021/07/14 17:34:20;;;;;;;;;;;21.30;99.90;;;;;;6291927;28;19923;-69
2021/07/14 17:37:21;;;;;;;;;;;21.40;99.90;;;;;;6308458;28;19932;-68
2021/07/14 17:40:23;;;;;;;;;;;21.40;99.90;;;;;;6290569;28;19947;-68
2021/07/14 17:43:25;;;;;;;;;;;21.50;99.90;;;;;;6293004;28;19932;-69
2021/07/14 17:46:31;;;;;;;;;;;21.50;99.90;;;;;;6297925;28;20299;-68
2021/07/14 17:49:32;;;;;;;;;;;21.60;99.90;;;;;;6291660;28;19932;-69
2021/07/14 17:52:34;;;;;;;;;;;21.60;99.90;;;;;;6307153;28;19935;-68
2021/07/14 17:55:36;;;;;;;;;;;21.60;99.90;;;;;;6290816;28;19929;-68
2021/07/14 17:58:38;;;;;;;;;;;21.60;99.90;;;;;;6294619;28;19929;-68
2021/07/14 18:01:39;;;;;;;;;;;21.60;99.90;;;;;;6291899;28;19939;-68